sensor_id;sensor_type;location;lat;lon;timestamp;P1;durP1;ratioP1;P2;durP2;ratioP2
7193;SDS011;3638;48.820;9.244;2024-03-29T00:01:08;6.67;;;3.80;;
7193;SDS011;3638;48.820;9.244;2024-03-29T00:03:34;8.93;;;3.57;;
7193;SDS011;3638;48.820;9.244;2024-03-29T00:06:00;3.60;;;3.23;;
7193;SDS011;3638;48.820;9.244;2024-03-29T00:08:27;5.03;;;3.50;;
7193;SDS011;3638;48.820;9.244;2024-03-29T00:10:53;5.20;;;3.20;;
7193;SDS011;3638;48.820;9.244;2024-03-29T00:13:19;5.10;;;3.70;;
7193;SDS011;3638;48.820;9.244;2024-03-29T00:15:47;5.37;;;3.50;;
7193;SDS011;3638;48.820;9.244;2024-03-29T00:18:13;4.03;;;3.00;;
7193;SDS011;3638;48.820;9.244;2024-03-29T00:20:39;5.13;;;2.53;;
7193;SDS011;3638;48.820;9.244;2024-03-29T00:23:06;3.27;;;2.33;;
7193;SDS011;3638;48.820;9.244;2024-03-29T00:25:32;2.60;;;2.40;;
7193;SDS011;3638;48.820;9.244;2024-03-29T00:27:58;2.20;;;2.10;;
7193;SDS011;3638;48.820;9.244;2024-03-29T00:30:25;2.20;;;2.10;;
7193;SDS011;3638;48.820;9.244;2024-03-29T00:32:52;2.10;;;2.00;;
7193;SDS011;3638;48.820;9.244;2024-03-29T00:35:19;2.67;;;2.30;;
7193;SDS011;3638;48.820;9.244;2024-03-29T00:37:45;3.20;;;2.90;;
7193;SDS011;3638;48.820;9.244;2024-03-29T00:40:11;4.70;;;3.37;;
7193;SDS011;3638;48.820;9.244;2024-03-29T00:42:38;3.87;;;3.50;;
7193;SDS011;3638;48.820;9.244;2024-03-29T00:45:04;6.17;;;4.23;;
7193;SDS011;3638;48.820;9.244;2024-03-29T00:47:31;4.37;;;3.37;;
7193;SDS011;3638;48.820;9.244;2024-03-29T00:49:59;3.83;;;3.40;;
7193;SDS011;3638;48.820;9.244;2024-03-29T00:52:25;5.47;;;3.63;;
7193;SDS011;3638;48.820;9.244;2024-03-29T00:54:52;4.67;;;3.23;;
7193;SDS011;3638;48.820;9.244;2024-03-29T00:57:18;3.80;;;3.20;;
7193;SDS011;3638;48.820;9.244;2024-03-29T00:59:44;7.53;;;3.40;;
7193;SDS011;3638;48.820;9.244;2024-03-29T01:02:11;3.37;;;3.07;;
7193;SDS011;3638;48.820;9.244;2024-03-29T01:04:37;3.60;;;3.30;;
7193;SDS011;3638;48.820;9.244;2024-03-29T01:07:05;4.63;;;3.80;;
7193;SDS011;3638;48.820;9.244;2024-03-29T01:09:31;5.70;;;4.13;;
7193;SDS011;3638;48.820;9.244;2024-03-29T01:11:58;7.80;;;4.10;;
7193;SDS011;3638;48.820;9.244;2024-03-29T01:14:24;5.17;;;4.23;;
7193;SDS011;3638;48.820;9.244;2024-03-29T01:16:50;8.30;;;3.60;;
7193;SDS011;3638;48.820;9.244;2024-03-29T01:19:17;5.43;;;3.47;;
7193;SDS011;3638;48.820;9.244;2024-03-29T01:21:43;4.50;;;3.50;;
7193;SDS011;3638;48.820;9.244;2024-03-29T01:24:11;4.17;;;3.40;;
7193;SDS011;3638;48.820;9.244;2024-03-29T01:26:37;4.10;;;3.20;;
7193;SDS011;3638;48.820;9.244;2024-03-29T01:29:03;3.73;;;3.30;;
7193;SDS011;3638;48.820;9.244;2024-03-29T01:31:30;4.93;;;3.37;;
7193;SDS011;3638;48.820;9.244;2024-03-29T01:33:56;5.03;;;3.40;;
7193;SDS011;3638;48.820;9.244;2024-03-29T01:36:22;4.03;;;3.40;;
7193;SDS011;3638;48.820;9.244;2024-03-29T01:38:49;5.47;;;4.07;;
7193;SDS011;3638;48.820;9.244;2024-03-29T01:41:17;5.80;;;3.70;;
7193;SDS011;3638;48.820;9.244;2024-03-29T01:43:43;4.13;;;3.50;;
7193;SDS011;3638;48.820;9.244;2024-03-29T01:46:10;4.03;;;3.10;;
7193;SDS011;3638;48.820;9.244;2024-03-29T01:48:37;4.93;;;3.47;;
7193;SDS011;3638;48.820;9.244;2024-03-29T01:51:05;4.73;;;3.90;;
7193;SDS011;3638;48.820;9.244;2024-03-29T01:53:32;5.07;;;3.53;;
7193;SDS011;3638;48.820;9.244;2024-03-29T01:55:59;4.20;;;3.80;;
7193;SDS011;3638;48.820;9.244;2024-03-29T01:58:29;5.03;;;3.50;;
7193;SDS011;3638;48.820;9.244;2024-03-29T02:00:57;4.47;;;3.60;;
7193;SDS011;3638;48.820;9.244;2024-03-29T02:03:25;3.87;;;3.20;;
7193;SDS011;3638;48.820;9.244;2024-03-29T02:05:53;3.73;;;3.20;;
7193;SDS011;3638;48.820;9.244;2024-03-29T02:08:20;5.70;;;3.00;;
7193;SDS011;3638;48.820;9.244;2024-03-29T02:10:48;3.33;;;3.00;;
7193;SDS011;3638;48.820;9.244;2024-03-29T02:13:16;3.27;;;2.77;;
7193;SDS011;3638;48.820;9.244;2024-03-29T02:15:44;2.80;;;2.47;;
7193;SDS011;3638;48.820;9.244;2024-03-29T02:18:11;2.53;;;2.27;;
7193;SDS011;3638;48.820;9.244;2024-03-29T02:20:38;2.37;;;2.20;;
7193;SDS011;3638;48.820;9.244;2024-03-29T02:23:06;2.33;;;2.13;;
7193;SDS011;3638;48.820;9.244;2024-03-29T02:25:36;2.23;;;2.03;;
7193;SDS011;3638;48.820;9.244;2024-03-29T02:28:04;1.93;;;1.80;;
7193;SDS011;3638;48.820;9.244;2024-03-29T02:30:32;1.90;;;1.80;;
7193;SDS011;3638;48.820;9.244;2024-03-29T02:32:59;2.50;;;1.80;;
7193;SDS011;3638;48.820;9.244;2024-03-29T02:35:26;2.53;;;1.90;;
7193;SDS011;3638;48.820;9.244;2024-03-29T02:37:55;2.00;;;1.90;;
7193;SDS011;3638;48.820;9.244;2024-03-29T02:40:22;1.93;;;1.80;;
7193;SDS011;3638;48.820;9.244;2024-03-29T02:42:50;1.70;;;1.60;;
7193;SDS011;3638;48.820;9.244;2024-03-29T02:45:18;1.80;;;1.70;;
7193;SDS011;3638;48.820;9.244;2024-03-29T02:47:44;1.80;;;1.70;;
7193;SDS011;3638;48.820;9.244;2024-03-29T02:50:12;1.80;;;1.70;;
7193;SDS011;3638;48.820;9.244;2024-03-29T02:52:40;2.17;;;2.00;;
7193;SDS011;3638;48.820;9.244;2024-03-29T02:55:08;1.97;;;1.87;;
7193;SDS011;3638;48.820;9.244;2024-03-29T02:57:35;1.90;;;1.80;;
7193;SDS011;3638;48.820;9.244;2024-03-29T03:00:04;1.90;;;1.80;;
7193;SDS011;3638;48.820;9.244;2024-03-29T03:02:31;1.80;;;1.70;;
7193;SDS011;3638;48.820;9.244;2024-03-29T03:04:58;2.13;;;2.03;;
7193;SDS011;3638;48.820;9.244;2024-03-29T03:07:25;2.80;;;2.57;;
7193;SDS011;3638;48.820;9.244;2024-03-29T03:10:10;3.60;;;2.97;;
7193;SDS011;3638;48.820;9.244;2024-03-29T03:12:55;3.60;;;2.53;;
7193;SDS011;3638;48.820;9.244;2024-03-29T03:15:23;2.50;;;2.30;;
7193;SDS011;3638;48.820;9.244;2024-03-29T03:17:50;2.70;;;2.50;;
7193;SDS011;3638;48.820;9.244;2024-03-29T03:20:18;2.60;;;2.40;;
7193;SDS011;3638;48.820;9.244;2024-03-29T03:22:44;2.90;;;2.70;;
7193;SDS011;3638;48.820;9.244;2024-03-29T03:25:11;2.90;;;2.60;;
7193;SDS011;3638;48.820;9.244;2024-03-29T03:27:38;3.77;;;2.60;;
7193;SDS011;3638;48.820;9.244;2024-03-29T03:30:06;3.23;;;2.80;;
7193;SDS011;3638;48.820;9.244;2024-03-29T03:32:34;4.37;;;3.20;;
7193;SDS011;3638;48.820;9.244;2024-03-29T03:35:01;3.63;;;2.80;;
7193;SDS011;3638;48.820;9.244;2024-03-29T03:37:28;2.93;;;2.63;;
7193;SDS011;3638;48.820;9.244;2024-03-29T03:39:55;3.10;;;2.80;;
7193;SDS011;3638;48.820;9.244;2024-03-29T03:42:21;3.47;;;2.53;;
7193;SDS011;3638;48.820;9.244;2024-03-29T03:44:48;3.03;;;2.50;;
7193;SDS011;3638;48.820;9.244;2024-03-29T03:47:14;4.00;;;2.70;;
7193;SDS011;3638;48.820;9.244;2024-03-29T03:49:43;4.13;;;2.50;;
7193;SDS011;3638;48.820;9.244;2024-03-29T03:52:09;2.60;;;2.40;;
7193;SDS011;3638;48.820;9.244;2024-03-29T03:54:36;2.40;;;2.20;;
7193;SDS011;3638;48.820;9.244;2024-03-29T03:57:03;2.50;;;2.30;;
7193;SDS011;3638;48.820;9.244;2024-03-29T03:59:31;2.67;;;2.33;;
7193;SDS011;3638;48.820;9.244;2024-03-29T04:01:57;2.60;;;2.30;;
7193;SDS011;3638;48.820;9.244;2024-03-29T04:04:26;3.03;;;2.50;;
7193;SDS011;3638;48.820;9.244;2024-03-29T04:06:54;2.50;;;2.30;;
7193;SDS011;3638;48.820;9.244;2024-03-29T04:09:21;2.33;;;2.13;;
7193;SDS011;3638;48.820;9.244;2024-03-29T04:11:47;3.70;;;2.77;;
7193;SDS011;3638;48.820;9.244;2024-03-29T04:14:15;2.30;;;2.20;;
7193;SDS011;3638;48.820;9.244;2024-03-29T04:16:41;2.57;;;2.37;;
7193;SDS011;3638;48.820;9.244;2024-03-29T04:19:08;3.53;;;2.50;;
7193;SDS011;3638;48.820;9.244;2024-03-29T04:21:35;2.70;;;2.43;;
7193;SDS011;3638;48.820;9.244;2024-03-29T04:24:03;2.20;;;2.00;;
7193;SDS011;3638;48.820;9.244;2024-03-29T04:26:32;3.53;;;2.27;;
7193;SDS011;3638;48.820;9.244;2024-03-29T04:28:59;2.10;;;2.00;;
7193;SDS011;3638;48.820;9.244;2024-03-29T04:31:25;2.23;;;2.10;;
7193;SDS011;3638;48.820;9.244;2024-03-29T04:33:53;1.90;;;1.80;;
7193;SDS011;3638;48.820;9.244;2024-03-29T04:36:19;2.77;;;2.00;;
7193;SDS011;3638;48.820;9.244;2024-03-29T04:38:46;1.90;;;1.80;;
7193;SDS011;3638;48.820;9.244;2024-03-29T04:41:15;1.50;;;1.50;;
7193;SDS011;3638;48.820;9.244;2024-03-29T04:43:42;1.60;;;1.50;;
7193;SDS011;3638;48.820;9.244;2024-03-29T04:46:10;1.90;;;1.80;;
7193;SDS011;3638;48.820;9.244;2024-03-29T04:48:38;1.80;;;1.70;;
7193;SDS011;3638;48.820;9.244;2024-03-29T04:51:08;1.70;;;1.60;;
7193;SDS011;3638;48.820;9.244;2024-03-29T04:53:35;2.00;;;1.90;;
7193;SDS011;3638;48.820;9.244;2024-03-29T04:56:03;2.13;;;2.03;;
7193;SDS011;3638;48.820;9.244;2024-03-29T04:58:31;2.40;;;2.20;;
7193;SDS011;3638;48.820;9.244;2024-03-29T05:00:59;2.50;;;2.30;;
7193;SDS011;3638;48.820;9.244;2024-03-29T05:03:26;2.27;;;2.17;;
7193;SDS011;3638;48.820;9.244;2024-03-29T05:05:53;2.13;;;2.00;;
7193;SDS011;3638;48.820;9.244;2024-03-29T05:08:20;2.03;;;1.93;;
7193;SDS011;3638;48.820;9.244;2024-03-29T05:10:48;1.90;;;1.80;;
7193;SDS011;3638;48.820;9.244;2024-03-29T05:13:16;3.03;;;2.00;;
7193;SDS011;3638;48.820;9.244;2024-03-29T05:15:46;2.00;;;1.90;;
7193;SDS011;3638;48.820;9.244;2024-03-29T05:18:13;2.00;;;1.90;;
7193;SDS011;3638;48.820;9.244;2024-03-29T05:20:40;1.90;;;1.80;;
7193;SDS011;3638;48.820;9.244;2024-03-29T05:23:12;2.37;;;2.17;;
7193;SDS011;3638;48.820;9.244;2024-03-29T05:25:40;2.33;;;2.13;;
7193;SDS011;3638;48.820;9.244;2024-03-29T05:28:08;2.20;;;2.00;;
7193;SDS011;3638;48.820;9.244;2024-03-29T05:30:35;2.33;;;1.90;;
7193;SDS011;3638;48.820;9.244;2024-03-29T05:33:04;2.23;;;2.00;;
7193;SDS011;3638;48.820;9.244;2024-03-29T05:35:33;2.30;;;2.10;;
7193;SDS011;3638;48.820;9.244;2024-03-29T05:38:00;2.10;;;2.00;;
7193;SDS011;3638;48.820;9.244;2024-03-29T05:40:27;2.27;;;2.00;;
7193;SDS011;3638;48.820;9.244;2024-03-29T05:42:55;2.00;;;1.90;;
7193;SDS011;3638;48.820;9.244;2024-03-29T05:45:23;2.13;;;1.93;;
7193;SDS011;3638;48.820;9.244;2024-03-29T05:47:51;2.17;;;2.07;;
7193;SDS011;3638;48.820;9.244;2024-03-29T05:50:21;1.90;;;1.80;;
7193;SDS011;3638;48.820;9.244;2024-03-29T05:52:48;1.90;;;1.80;;
7193;SDS011;3638;48.820;9.244;2024-03-29T05:55:16;1.90;;;1.80;;
7193;SDS011;3638;48.820;9.244;2024-03-29T05:57:44;2.03;;;1.83;;
7193;SDS011;3638;48.820;9.244;2024-03-29T06:00:11;2.00;;;1.90;;
7193;SDS011;3638;48.820;9.244;2024-03-29T06:02:42;2.10;;;2.00;;
7193;SDS011;3638;48.820;9.244;2024-03-29T06:05:11;1.83;;;1.73;;
7193;SDS011;3638;48.820;9.244;2024-03-29T06:07:39;2.20;;;2.00;;
7193;SDS011;3638;48.820;9.244;2024-03-29T06:10:07;1.90;;;1.80;;
7193;SDS011;3638;48.820;9.244;2024-03-29T06:12:35;1.90;;;1.80;;
7193;SDS011;3638;48.820;9.244;2024-03-29T06:15:04;1.90;;;1.80;;
7193;SDS011;3638;48.820;9.244;2024-03-29T06:17:49;1.80;;;1.70;;
7193;SDS011;3638;48.820;9.244;2024-03-29T06:20:17;1.80;;;1.70;;
7193;SDS011;3638;48.820;9.244;2024-03-29T06:22:45;1.80;;;1.70;;
7193;SDS011;3638;48.820;9.244;2024-03-29T06:25:13;3.67;;;1.87;;
7193;SDS011;3638;48.820;9.244;2024-03-29T06:27:40;2.00;;;1.70;;
7193;SDS011;3638;48.820;9.244;2024-03-29T06:30:12;1.80;;;1.70;;
7193;SDS011;3638;48.820;9.244;2024-03-29T06:32:40;1.70;;;1.60;;
7193;SDS011;3638;48.820;9.244;2024-03-29T06:35:07;1.90;;;1.80;;
7193;SDS011;3638;48.820;9.244;2024-03-29T06:37:35;1.80;;;1.70;;
7193;SDS011;3638;48.820;9.244;2024-03-29T06:40:05;2.27;;;1.97;;
7193;SDS011;3638;48.820;9.244;2024-03-29T06:42:33;1.80;;;1.70;;
7193;SDS011;3638;48.820;9.244;2024-03-29T06:45:00;2.00;;;1.90;;
7193;SDS011;3638;48.820;9.244;2024-03-29T06:47:28;1.90;;;1.70;;
7193;SDS011;3638;48.820;9.244;2024-03-29T06:49:55;1.83;;;1.73;;
7193;SDS011;3638;48.820;9.244;2024-03-29T06:52:22;1.87;;;1.77;;
7193;SDS011;3638;48.820;9.244;2024-03-29T06:54:50;1.90;;;1.80;;
7193;SDS011;3638;48.820;9.244;2024-03-29T06:57:18;1.83;;;1.73;;
7193;SDS011;3638;48.820;9.244;2024-03-29T06:59:50;2.10;;;1.90;;
7193;SDS011;3638;48.820;9.244;2024-03-29T07:02:17;2.50;;;1.87;;
7193;SDS011;3638;48.820;9.244;2024-03-29T07:04:45;1.97;;;1.83;;
7193;SDS011;3638;48.820;9.244;2024-03-29T07:07:12;1.93;;;1.83;;
7193;SDS011;3638;48.820;9.244;2024-03-29T07:09:40;2.23;;;1.90;;
7193;SDS011;3638;48.820;9.244;2024-03-29T07:12:07;1.80;;;1.70;;
7193;SDS011;3638;48.820;9.244;2024-03-29T07:14:36;1.83;;;1.70;;
7193;SDS011;3638;48.820;9.244;2024-03-29T07:17:03;1.70;;;1.60;;
7193;SDS011;3638;48.820;9.244;2024-03-29T07:19:30;1.80;;;1.70;;
7193;SDS011;3638;48.820;9.244;2024-03-29T07:21:57;2.20;;;1.70;;
7193;SDS011;3638;48.820;9.244;2024-03-29T07:24:25;1.70;;;1.60;;
7193;SDS011;3638;48.820;9.244;2024-03-29T07:26:52;1.80;;;1.70;;
7193;SDS011;3638;48.820;9.244;2024-03-29T07:29:19;4.17;;;1.90;;
7193;SDS011;3638;48.820;9.244;2024-03-29T07:31:48;1.77;;;1.67;;
7193;SDS011;3638;48.820;9.244;2024-03-29T07:34:15;2.53;;;1.80;;
7193;SDS011;3638;48.820;9.244;2024-03-29T07:36:42;3.10;;;2.03;;
7193;SDS011;3638;48.820;9.244;2024-03-29T07:39:10;2.30;;;2.13;;
7193;SDS011;3638;48.820;9.244;2024-03-29T07:41:37;3.53;;;2.10;;
7193;SDS011;3638;48.820;9.244;2024-03-29T07:44:04;2.10;;;1.90;;
7193;SDS011;3638;48.820;9.244;2024-03-29T07:46:33;2.30;;;2.07;;
7193;SDS011;3638;48.820;9.244;2024-03-29T07:49:03;2.07;;;1.97;;
7193;SDS011;3638;48.820;9.244;2024-03-29T07:51:30;2.10;;;1.90;;
7193;SDS011;3638;48.820;9.244;2024-03-29T07:53:57;3.00;;;2.40;;
7193;SDS011;3638;48.820;9.244;2024-03-29T07:56:25;2.63;;;2.10;;
7193;SDS011;3638;48.820;9.244;2024-03-29T07:58:52;2.50;;;2.20;;
7193;SDS011;3638;48.820;9.244;2024-03-29T08:01:19;2.10;;;1.90;;
7193;SDS011;3638;48.820;9.244;2024-03-29T08:03:47;2.17;;;1.97;;
7193;SDS011;3638;48.820;9.244;2024-03-29T08:06:17;2.80;;;2.00;;
7193;SDS011;3638;48.820;9.244;2024-03-29T08:08:45;2.40;;;2.20;;
7193;SDS011;3638;48.820;9.244;2024-03-29T08:11:12;2.40;;;2.20;;
7193;SDS011;3638;48.820;9.244;2024-03-29T08:13:39;3.83;;;2.40;;
7193;SDS011;3638;48.820;9.244;2024-03-29T08:16:07;3.13;;;2.03;;
7193;SDS011;3638;48.820;9.244;2024-03-29T08:18:36;2.40;;;2.20;;
7193;SDS011;3638;48.820;9.244;2024-03-29T08:21:03;2.63;;;2.43;;
7193;SDS011;3638;48.820;9.244;2024-03-29T08:23:37;4.67;;;2.47;;
7193;SDS011;3638;48.820;9.244;2024-03-29T08:26:05;2.90;;;2.70;;
7193;SDS011;3638;48.820;9.244;2024-03-29T08:28:33;3.33;;;2.27;;
7193;SDS011;3638;48.820;9.244;2024-03-29T08:31:03;2.77;;;2.53;;
7193;SDS011;3638;48.820;9.244;2024-03-29T08:33:34;3.73;;;2.70;;
7193;SDS011;3638;48.820;9.244;2024-03-29T08:36:03;2.40;;;2.20;;
7193;SDS011;3638;48.820;9.244;2024-03-29T08:38:31;2.40;;;2.20;;
7193;SDS011;3638;48.820;9.244;2024-03-29T08:40:59;2.43;;;2.10;;
7193;SDS011;3638;48.820;9.244;2024-03-29T08:43:27;2.70;;;2.50;;
7193;SDS011;3638;48.820;9.244;2024-03-29T08:45:54;2.30;;;2.10;;
7193;SDS011;3638;48.820;9.244;2024-03-29T08:48:22;3.00;;;2.73;;
7193;SDS011;3638;48.820;9.244;2024-03-29T08:50:50;2.20;;;2.10;;
7193;SDS011;3638;48.820;9.244;2024-03-29T08:53:17;2.43;;;2.23;;
7193;SDS011;3638;48.820;9.244;2024-03-29T08:55:45;2.50;;;2.30;;
7193;SDS011;3638;48.820;9.244;2024-03-29T08:58:14;2.20;;;2.10;;
7193;SDS011;3638;48.820;9.244;2024-03-29T09:00:51;2.33;;;2.13;;
7193;SDS011;3638;48.820;9.244;2024-03-29T09:03:19;2.50;;;2.00;;
7193;SDS011;3638;48.820;9.244;2024-03-29T09:05:46;2.03;;;1.93;;
7193;SDS011;3638;48.820;9.244;2024-03-29T09:08:13;2.80;;;2.10;;
7193;SDS011;3638;48.820;9.244;2024-03-29T09:10:41;2.57;;;2.00;;
7193;SDS011;3638;48.820;9.244;2024-03-29T09:13:08;2.30;;;2.10;;
7193;SDS011;3638;48.820;9.244;2024-03-29T09:15:38;3.10;;;2.30;;
7193;SDS011;3638;48.820;9.244;2024-03-29T09:18:05;2.87;;;2.20;;
7193;SDS011;3638;48.820;9.244;2024-03-29T09:20:42;2.80;;;2.40;;
7193;SDS011;3638;48.820;9.244;2024-03-29T09:23:10;2.27;;;2.17;;
7193;SDS011;3638;48.820;9.244;2024-03-29T09:25:42;2.90;;;2.10;;
7193;SDS011;3638;48.820;9.244;2024-03-29T09:28:10;2.20;;;2.10;;
7193;SDS011;3638;48.820;9.244;2024-03-29T09:30:38;2.30;;;2.10;;
7193;SDS011;3638;48.820;9.244;2024-03-29T09:33:08;3.20;;;2.43;;
7193;SDS011;3638;48.820;9.244;2024-03-29T09:35:36;2.20;;;2.10;;
7193;SDS011;3638;48.820;9.244;2024-03-29T09:38:04;2.50;;;2.30;;
7193;SDS011;3638;48.820;9.244;2024-03-29T09:40:31;2.53;;;2.30;;
7193;SDS011;3638;48.820;9.244;2024-03-29T09:42:59;2.50;;;2.30;;
7193;SDS011;3638;48.820;9.244;2024-03-29T09:45:28;3.07;;;2.40;;
7193;SDS011;3638;48.820;9.244;2024-03-29T09:48:01;4.33;;;3.10;;
7193;SDS011;3638;48.820;9.244;2024-03-29T09:50:29;2.87;;;2.50;;
7193;SDS011;3638;48.820;9.244;2024-03-29T09:52:56;2.50;;;2.30;;
7193;SDS011;3638;48.820;9.244;2024-03-29T09:55:24;2.40;;;2.20;;
7193;SDS011;3638;48.820;9.244;2024-03-29T09:57:51;3.60;;;2.40;;
7193;SDS011;3638;48.820;9.244;2024-03-29T10:00:19;2.47;;;2.20;;
7193;SDS011;3638;48.820;9.244;2024-03-29T10:02:46;2.63;;;2.43;;
7193;SDS011;3638;48.820;9.244;2024-03-29T10:05:17;3.10;;;2.80;;
7193;SDS011;3638;48.820;9.244;2024-03-29T10:07:45;3.67;;;2.50;;
7193;SDS011;3638;48.820;9.244;2024-03-29T10:10:13;3.73;;;2.70;;
7193;SDS011;3638;48.820;9.244;2024-03-29T10:12:40;3.73;;;2.70;;
7193;SDS011;3638;48.820;9.244;2024-03-29T10:15:07;4.03;;;2.77;;
7193;SDS011;3638;48.820;9.244;2024-03-29T10:17:39;5.43;;;2.70;;
7193;SDS011;3638;48.820;9.244;2024-03-29T10:20:11;3.40;;;3.10;;
7193;SDS011;3638;48.820;9.244;2024-03-29T10:22:41;3.20;;;2.90;;
7193;SDS011;3638;48.820;9.244;2024-03-29T10:25:09;2.73;;;2.53;;
7193;SDS011;3638;48.820;9.244;2024-03-29T10:27:36;3.53;;;2.50;;
7193;SDS011;3638;48.820;9.244;2024-03-29T10:30:05;2.77;;;2.50;;
7193;SDS011;3638;48.820;9.244;2024-03-29T10:32:33;3.17;;;2.70;;
7193;SDS011;3638;48.820;9.244;2024-03-29T10:35:01;2.40;;;2.20;;
7193;SDS011;3638;48.820;9.244;2024-03-29T10:37:28;2.33;;;2.13;;
7193;SDS011;3638;48.820;9.244;2024-03-29T10:40:00;2.50;;;2.30;;
7193;SDS011;3638;48.820;9.244;2024-03-29T10:42:29;3.70;;;2.63;;
7193;SDS011;3638;48.820;9.244;2024-03-29T10:44:58;3.40;;;2.40;;
7193;SDS011;3638;48.820;9.244;2024-03-29T10:47:26;2.93;;;2.63;;
7193;SDS011;3638;48.820;9.244;2024-03-29T10:49:54;2.60;;;2.33;;
7193;SDS011;3638;48.820;9.244;2024-03-29T10:52:23;3.43;;;2.60;;
7193;SDS011;3638;48.820;9.244;2024-03-29T10:54:51;4.00;;;2.50;;
7193;SDS011;3638;48.820;9.244;2024-03-29T10:57:22;2.73;;;2.50;;
7193;SDS011;3638;48.820;9.244;2024-03-29T10:59:52;4.33;;;2.50;;
7193;SDS011;3638;48.820;9.244;2024-03-29T11:02:28;2.47;;;2.27;;
7193;SDS011;3638;48.820;9.244;2024-03-29T11:05:01;4.30;;;2.37;;
7193;SDS011;3638;48.820;9.244;2024-03-29T11:07:31;3.57;;;2.50;;
7193;SDS011;3638;48.820;9.244;2024-03-29T11:10:00;3.70;;;2.30;;
7193;SDS011;3638;48.820;9.244;2024-03-29T11:12:31;2.27;;;2.03;;
7193;SDS011;3638;48.820;9.244;2024-03-29T11:15:02;2.25;;;2.05;;
7193;SDS011;3638;48.820;9.244;2024-03-29T11:17:30;7.17;;;2.30;;
7193;SDS011;3638;48.820;9.244;2024-03-29T11:19:58;2.33;;;2.13;;
7193;SDS011;3638;48.820;9.244;2024-03-29T11:22:25;3.07;;;2.23;;
7193;SDS011;3638;48.820;9.244;2024-03-29T11:24:53;2.40;;;2.20;;
7193;SDS011;3638;48.820;9.244;2024-03-29T11:27:22;2.40;;;2.00;;
7193;SDS011;3638;48.820;9.244;2024-03-29T11:29:51;4.82;;;2.13;;
7193;SDS011;3638;48.820;9.244;2024-03-29T11:32:33;2.40;;;2.13;;
7193;SDS011;3638;48.820;9.244;2024-03-29T11:35:00;2.10;;;1.90;;
7193;SDS011;3638;48.820;9.244;2024-03-29T11:37:29;2.20;;;2.00;;
7193;SDS011;3638;48.820;9.244;2024-03-29T11:39:58;1.90;;;1.77;;
7193;SDS011;3638;48.820;9.244;2024-03-29T11:42:35;2.90;;;1.80;;
7193;SDS011;3638;48.820;9.244;2024-03-29T11:45:05;1.80;;;1.70;;
7193;SDS011;3638;48.820;9.244;2024-03-29T11:47:35;3.10;;;1.60;;
7193;SDS011;3638;48.820;9.244;2024-03-29T11:50:04;1.85;;;1.70;;
7193;SDS011;3638;48.820;9.244;2024-03-29T11:52:33;1.92;;;1.70;;
7193;SDS011;3638;48.820;9.244;2024-03-29T11:55:00;3.70;;;2.00;;
7193;SDS011;3638;48.820;9.244;2024-03-29T11:57:29;2.40;;;2.20;;
7193;SDS011;3638;48.820;9.244;2024-03-29T11:59:56;2.35;;;1.90;;
7193;SDS011;3638;48.820;9.244;2024-03-29T12:02:25;1.60;;;1.50;;
7193;SDS011;3638;48.820;9.244;2024-03-29T12:04:52;1.63;;;1.52;;
7193;SDS011;3638;48.820;9.244;2024-03-29T12:07:19;1.85;;;1.70;;
7193;SDS011;3638;48.820;9.244;2024-03-29T12:09:47;2.05;;;1.88;;
7193;SDS011;3638;48.820;9.244;2024-03-29T12:12:14;3.05;;;1.85;;
7193;SDS011;3638;48.820;9.244;2024-03-29T12:14:42;1.80;;;1.70;;
7193;SDS011;3638;48.820;9.244;2024-03-29T12:17:10;2.47;;;2.13;;
7193;SDS011;3638;48.820;9.244;2024-03-29T12:19:38;2.08;;;1.90;;
7193;SDS011;3638;48.820;9.244;2024-03-29T12:22:07;1.90;;;1.80;;
7193;SDS011;3638;48.820;9.244;2024-03-29T12:24:35;2.15;;;1.90;;
7193;SDS011;3638;48.820;9.244;2024-03-29T12:27:02;3.65;;;1.90;;
7193;SDS011;3638;48.820;9.244;2024-03-29T12:29:30;2.13;;;1.80;;
7193;SDS011;3638;48.820;9.244;2024-03-29T12:31:58;1.70;;;1.60;;
7193;SDS011;3638;48.820;9.244;2024-03-29T12:34:26;2.35;;;1.88;;
7193;SDS011;3638;48.820;9.244;2024-03-29T12:36:54;1.70;;;1.60;;
7193;SDS011;3638;48.820;9.244;2024-03-29T12:39:25;1.70;;;1.60;;
7193;SDS011;3638;48.820;9.244;2024-03-29T12:41:52;2.20;;;2.00;;
7193;SDS011;3638;48.820;9.244;2024-03-29T12:44:24;2.85;;;2.50;;
7193;SDS011;3638;48.820;9.244;2024-03-29T12:46:51;2.30;;;2.10;;
7193;SDS011;3638;48.820;9.244;2024-03-29T12:49:18;1.63;;;1.52;;
7193;SDS011;3638;48.820;9.244;2024-03-29T12:51:46;1.50;;;1.40;;
7193;SDS011;3638;48.820;9.244;2024-03-29T12:54:14;1.70;;;1.60;;
7193;SDS011;3638;48.820;9.244;2024-03-29T12:56:43;1.65;;;1.55;;
7193;SDS011;3638;48.820;9.244;2024-03-29T12:59:10;1.58;;;1.48;;
7193;SDS011;3638;48.820;9.244;2024-03-29T13:01:38;1.98;;;1.60;;
7193;SDS011;3638;48.820;9.244;2024-03-29T13:04:06;1.90;;;1.40;;
7193;SDS011;3638;48.820;9.244;2024-03-29T13:06:34;1.80;;;1.70;;
7193;SDS011;3638;48.820;9.244;2024-03-29T13:09:01;1.60;;;1.50;;
7193;SDS011;3638;48.820;9.244;2024-03-29T13:11:31;3.00;;;1.90;;
7193;SDS011;3638;48.820;9.244;2024-03-29T13:13:58;1.70;;;1.30;;
7193;SDS011;3638;48.820;9.244;2024-03-29T13:16:25;2.33;;;1.63;;
7193;SDS011;3638;48.820;9.244;2024-03-29T13:18:53;2.78;;;1.70;;
7193;SDS011;3638;48.820;9.244;2024-03-29T13:21:20;2.20;;;2.00;;
7193;SDS011;3638;48.820;9.244;2024-03-29T13:23:47;4.45;;;1.90;;
7193;SDS011;3638;48.820;9.244;2024-03-29T13:26:15;1.90;;;1.77;;
7193;SDS011;3638;48.820;9.244;2024-03-29T13:28:43;2.70;;;1.70;;
7193;SDS011;3638;48.820;9.244;2024-03-29T13:31:11;1.73;;;1.63;;
7193;SDS011;3638;48.820;9.244;2024-03-29T13:33:38;2.63;;;2.22;;
7193;SDS011;3638;48.820;9.244;2024-03-29T13:36:06;2.15;;;1.95;;
7193;SDS011;3638;48.820;9.244;2024-03-29T13:38:33;1.70;;;1.60;;
7193;SDS011;3638;48.820;9.244;2024-03-29T13:41:01;1.75;;;1.50;;
7193;SDS011;3638;48.820;9.244;2024-03-29T13:43:30;1.50;;;1.40;;
7193;SDS011;3638;48.820;9.244;2024-03-29T13:46:04;1.40;;;1.30;;
7193;SDS011;3638;48.820;9.244;2024-03-29T13:48:32;1.67;;;1.58;;
7193;SDS011;3638;48.820;9.244;2024-03-29T13:50:59;1.70;;;1.60;;
7193;SDS011;3638;48.820;9.244;2024-03-29T13:53:26;1.80;;;1.65;;
7193;SDS011;3638;48.820;9.244;2024-03-29T13:55:54;1.70;;;1.60;;
7193;SDS011;3638;48.820;9.244;2024-03-29T13:58:21;2.22;;;1.50;;
7193;SDS011;3638;48.820;9.244;2024-03-29T14:00:49;2.63;;;1.80;;
7193;SDS011;3638;48.820;9.244;2024-03-29T14:03:20;1.60;;;1.50;;
7193;SDS011;3638;48.820;9.244;2024-03-29T14:05:48;1.50;;;1.40;;
7193;SDS011;3638;48.820;9.244;2024-03-29T14:08:15;1.50;;;1.40;;
7193;SDS011;3638;48.820;9.244;2024-03-29T14:10:43;1.50;;;1.30;;
7193;SDS011;3638;48.820;9.244;2024-03-29T14:13:10;2.55;;;1.50;;
7193;SDS011;3638;48.820;9.244;2024-03-29T14:15:38;3.42;;;1.50;;
7193;SDS011;3638;48.820;9.244;2024-03-29T14:18:05;1.70;;;1.60;;
7193;SDS011;3638;48.820;9.244;2024-03-29T14:20:33;1.70;;;1.60;;
7193;SDS011;3638;48.820;9.244;2024-03-29T14:23:01;2.58;;;1.80;;
7193;SDS011;3638;48.820;9.244;2024-03-29T14:25:31;1.73;;;1.63;;
7193;SDS011;3638;48.820;9.244;2024-03-29T14:27:59;1.60;;;1.50;;
7193;SDS011;3638;48.820;9.244;2024-03-29T14:30:27;2.15;;;1.60;;
7193;SDS011;3638;48.820;9.244;2024-03-29T14:32:55;3.20;;;2.10;;
7193;SDS011;3638;48.820;9.244;2024-03-29T14:35:27;2.08;;;1.88;;
7193;SDS011;3638;48.820;9.244;2024-03-29T14:37:57;1.65;;;1.55;;
7193;SDS011;3638;48.820;9.244;2024-03-29T14:40:25;1.80;;;1.60;;
7193;SDS011;3638;48.820;9.244;2024-03-29T14:42:52;1.85;;;1.70;;
7193;SDS011;3638;48.820;9.244;2024-03-29T14:45:20;1.70;;;1.60;;
7193;SDS011;3638;48.820;9.244;2024-03-29T14:47:47;1.65;;;1.55;;
7193;SDS011;3638;48.820;9.244;2024-03-29T14:50:14;2.03;;;1.83;;
7193;SDS011;3638;48.820;9.244;2024-03-29T14:52:43;2.45;;;1.50;;
7193;SDS011;3638;48.820;9.244;2024-03-29T14:55:12;2.75;;;1.60;;
7193;SDS011;3638;48.820;9.244;2024-03-29T14:57:39;1.60;;;1.50;;
7193;SDS011;3638;48.820;9.244;2024-03-29T15:00:07;1.50;;;1.40;;
7193;SDS011;3638;48.820;9.244;2024-03-29T15:02:34;1.92;;;1.50;;
7193;SDS011;3638;48.820;9.244;2024-03-29T15:05:02;3.28;;;1.95;;
7193;SDS011;3638;48.820;9.244;2024-03-29T15:07:31;2.08;;;1.63;;
7193;SDS011;3638;48.820;9.244;2024-03-29T15:09:58;2.58;;;1.75;;
7193;SDS011;3638;48.820;9.244;2024-03-29T15:12:30;1.73;;;1.63;;
7193;SDS011;3638;48.820;9.244;2024-03-29T15:14:57;1.75;;;1.65;;
7193;SDS011;3638;48.820;9.244;2024-03-29T15:17:24;1.90;;;1.60;;
7193;SDS011;3638;48.820;9.244;2024-03-29T15:19:51;1.70;;;1.40;;